Time;durP1;ratioP1;P1;durP2;ratioP2;P2;SDS_P1;SDS_P2;PMS_P1;PMS_P2;Temp;Humidity;BMP_temperature;BMP_pressure;BME280_temperature;BME280_humidity;BME280_pressure;Samples;Min_cycle;Max_cycle;Signal;HPM_P1;HPM_P2
2023/09/15 00:00:23;;;;;;;5.10;2.47;;;12.60;99.90;;;;;;6211352;23;20016;-68
2023/09/15 00:02:50;;;;;;;7.78;2.70;;;12.60;99.90;;;;;;6184290;23;20863;-69
2023/09/15 00:05:16;;;;;;;8.35;2.80;;;12.60;99.90;;;;;;6184351;23;20021;-69
2023/09/15 00:07:42;;;;;;;8.07;2.58;;;12.60;99.90;;;;;;6185232;23;20018;-69
2023/09/15 00:10:11;;;;;;;7.40;3.10;;;12.60;99.90;;;;;;6211226;23;20395;-68
2023/09/15 00:12:38;;;;;;;4.25;2.60;;;12.60;99.90;;;;;;6185241;23;20027;-69
2023/09/15 00:15:07;;;;;;;9.95;3.78;;;12.40;99.90;;;;;;6184275;23;20076;-69
2023/09/15 00:17:37;;;;;;;3.80;2.42;;;12.40;99.90;;;;;;6211430;23;20407;-69
2023/09/15 00:20:21;;;;;;;15.00;3.40;;;12.50;99.90;;;;;;6211336;23;20088;-69
2023/09/15 00:22:55;;;;;;;9.60;2.67;;;12.50;99.90;;;;;;6211552;23;20349;-69
2023/09/15 00:25:25;;;;;;;6.90;2.78;;;12.40;99.90;;;;;;6211562;23;20043;-68
2023/09/15 00:27:56;;;;;;;5.95;2.83;;;12.40;99.90;;;;;;6184573;23;20017;-69
2023/09/15 00:30:23;;;;;;;7.32;2.60;;;12.40;99.90;;;;;;6211487;23;20017;-69
2023/09/15 00:32:49;;;;;;;6.18;2.75;;;12.40;99.90;;;;;;6211452;23;20027;-69
2023/09/15 00:35:16;;;;;;;6.10;2.70;;;12.40;99.90;;;;;;6184407;23;20024;-69
2023/09/15 00:37:43;;;;;;;6.53;2.55;;;12.40;99.90;;;;;;6210982;23;20016;-69
2023/09/15 00:40:10;;;;;;;6.55;2.78;;;12.40;99.90;;;;;;6211140;23;20051;-69
2023/09/15 00:42:42;;;;;;;6.47;2.85;;;12.40;99.90;;;;;;6210665;23;20055;-69
2023/09/15 00:45:09;;;;;;;6.50;2.40;;;12.30;99.90;;;;;;6210711;23;20105;-69
2023/09/15 00:47:36;;;;;;;5.25;2.75;;;12.20;99.90;;;;;;6184195;23;20027;-69
2023/09/15 00:50:05;;;;;;;5.35;2.97;;;12.20;99.90;;;;;;6210734;23;20016;-69
2023/09/15 00:52:33;;;;;;;5.85;3.13;;;12.20;99.90;;;;;;6210698;23;20452;-69
2023/09/15 00:55:00;;;;;;;6.78;3.92;;;12.20;99.90;;;;;;6183831;23;20052;-69
2023/09/15 00:57:27;;;;;;;5.25;2.50;;;12.10;99.90;;;;;;6210072;23;20023;-69
2023/09/15 00:59:53;;;;;;;5.80;2.47;;;12.20;99.90;;;;;;6210430;23;20520;-69
2023/09/15 01:02:19;;;;;;;4.75;2.83;;;12.10;99.90;;;;;;6158978;23;20031;-69
2023/09/15 01:04:45;;;;;;;7.63;3.05;;;12.20;99.90;;;;;;6183890;23;20027;-69
2023/09/15 01:07:12;;;;;;;6.70;2.90;;;12.10;99.90;;;;;;6184086;23;20099;-69
2023/09/15 01:09:39;;;;;;;4.45;2.58;;;12.10;99.90;;;;;;6210672;23;20034;-69
2023/09/15 01:12:07;;;;;;;4.22;2.78;;;12.20;99.90;;;;;;6210468;23;20027;-69
2023/09/15 01:14:34;;;;;;;4.63;2.50;;;12.10;99.90;;;;;;6183534;23;20091;-69
2023/09/15 01:17:12;;;;;;;5.55;2.60;;;12.10;99.90;;;;;;6210471;23;20016;-69
2023/09/15 01:20:13;;;;;;;7.55;2.85;;;12.20;99.90;;;;;;6184140;23;20022;-69
2023/09/15 01:23:16;;;;;;;5.93;2.60;;;12.10;99.90;;;;;;6210741;23;20471;-69
2023/09/15 01:25:55;;;;;;;6.47;2.95;;;12.10;99.90;;;;;;6161040;23;20063;-69
2023/09/15 01:28:35;;;;;;;5.47;2.90;;;12.10;99.90;;;;;;6212543;23;20095;-69
2023/09/15 01:31:01;;;;;;;6.93;2.75;;;12.00;99.90;;;;;;6212476;23;20349;-69
2023/09/15 01:33:28;;;;;;;5.63;2.70;;;12.00;99.90;;;;;;6185906;23;20055;-69
2023/09/15 01:35:54;;;;;;;4.82;2.90;;;11.90;99.90;;;;;;6185837;23;20063;-69
2023/09/15 01:38:21;;;;;;;7.80;2.80;;;11.90;99.90;;;;;;6212546;23;20036;-69
2023/09/15 01:40:46;;;;;;;7.38;3.75;;;11.90;99.90;;;;;;6185756;23;20032;-69
2023/09/15 01:43:13;;;;;;;4.68;3.05;;;11.90;99.90;;;;;;6185231;23;20702;-69
2023/09/15 01:45:38;;;;;;;7.20;3.03;;;11.90;99.90;;;;;;6212710;23;20340;-69
2023/09/15 01:48:05;;;;;;;3.72;2.55;;;11.90;99.90;;;;;;6185496;23;20063;-69
2023/09/15 01:50:32;;;;;;;5.38;2.75;;;11.90;99.90;;;;;;6212554;23;20075;-69
2023/09/15 01:52:59;;;;;;;13.20;3.33;;;11.90;99.90;;;;;;6185559;23;20338;-69
2023/09/15 01:55:25;;;;;;;9.15;3.10;;;11.80;99.90;;;;;;6212557;23;20024;-69
2023/09/15 01:57:51;;;;;;;5.43;2.72;;;11.80;99.90;;;;;;6184704;23;20020;-69
2023/09/15 02:00:17;;;;;;;6.55;3.55;;;11.80;99.90;;;;;;6185790;23;20395;-69
2023/09/15 02:02:43;;;;;;;5.72;2.88;;;11.80;99.90;;;;;;6212421;23;20043;-69
2023/09/15 02:05:21;;;;;;;6.57;3.05;;;11.90;99.90;;;;;;6212604;23;20437;-68
2023/09/15 02:07:46;;;;;;;6.40;2.92;;;11.80;99.90;;;;;;6212382;23;20033;-69
2023/09/15 02:10:12;;;;;;;5.32;2.78;;;11.90;99.90;;;;;;6160623;23;20617;-69
2023/09/15 02:12:38;;;;;;;5.70;3.00;;;11.90;99.90;;;;;;6185687;23;20020;-69
2023/09/15 02:15:04;;;;;;;6.85;3.00;;;11.90;99.90;;;;;;6185852;23;20020;-69
2023/09/15 02:17:30;;;;;;;7.40;3.22;;;11.90;99.90;;;;;;6212642;23;20039;-69
2023/09/15 02:19:56;;;;;;;3.85;2.95;;;11.90;99.90;;;;;;6185428;23;20381;-69
2023/09/15 02:22:22;;;;;;;12.00;3.30;;;11.90;99.90;;;;;;6185032;23;20024;-69
2023/09/15 02:24:48;;;;;;;5.82;2.85;;;11.90;99.90;;;;;;6212227;23;20020;-69
2023/09/15 02:27:13;;;;;;;6.13;3.15;;;11.90;99.90;;;;;;6212201;23;20024;-69
2023/09/15 02:29:39;;;;;;;6.57;3.35;;;11.90;99.90;;;;;;6212116;23;20024;-69
2023/09/15 02:32:05;;;;;;;5.35;3.30;;;11.90;99.90;;;;;;6185252;23;20037;-69
2023/09/15 02:34:31;;;;;;;5.00;2.85;;;11.70;99.90;;;;;;6212164;23;20025;-68
2023/09/15 02:36:56;;;;;;;5.57;3.17;;;11.70;99.90;;;;;;6212009;23;20396;-69
2023/09/15 02:39:22;;;;;;;5.75;3.42;;;11.70;99.90;;;;;;6184930;23;20441;-69
2023/09/15 02:41:48;;;;;;;6.63;3.30;;;11.70;99.90;;;;;;6212124;23;20025;-68
2023/09/15 02:44:13;;;;;;;10.07;3.17;;;11.80;99.90;;;;;;6211854;23;20020;-69
2023/09/15 02:46:39;;;;;;;7.85;3.40;;;11.70;99.90;;;;;;6212153;23;20492;-69
2023/09/15 02:49:05;;;;;;;6.60;3.28;;;11.60;99.90;;;;;;6212096;23;20109;-69
2023/09/15 02:51:31;;;;;;;9.00;3.42;;;11.60;99.90;;;;;;6212080;23;20024;-68
2023/09/15 02:53:56;;;;;;;5.10;3.42;;;11.70;99.90;;;;;;6211801;23;20021;-69
2023/09/15 02:56:23;;;;;;;5.07;3.90;;;11.70;99.90;;;;;;6184551;23;20038;-69
2023/09/15 02:58:49;;;;;;;8.68;3.28;;;11.70;99.90;;;;;;6211684;23;20017;-69
2023/09/15 03:01:16;;;;;;;8.45;3.20;;;11.60;99.90;;;;;;6184848;23;20056;-69
2023/09/15 03:03:41;;;;;;;5.03;3.20;;;11.50;99.90;;;;;;6212217;23;20404;-69
2023/09/15 03:06:09;;;;;;;6.00;3.35;;;11.50;99.90;;;;;;6184940;23;20024;-69
2023/09/15 03:08:38;;;;;;;4.78;3.50;;;11.50;99.90;;;;;;6160328;23;20020;-69
2023/09/15 03:11:04;;;;;;;4.70;3.70;;;11.50;99.90;;;;;;6160485;23;20016;-68
2023/09/15 03:13:30;;;;;;;5.30;3.15;;;11.50;99.90;;;;;;6212348;23;20071;-68
2023/09/15 03:15:55;;;;;;;6.03;3.45;;;11.60;99.90;;;;;;6185132;23;20124;-69
2023/09/15 03:18:21;;;;;;;6.90;3.10;;;11.60;99.90;;;;;;6211782;23;20021;-69
2023/09/15 03:20:47;;;;;;;8.93;3.50;;;11.60;99.90;;;;;;6211557;23;20028;-69
2023/09/15 03:23:14;;;;;;;5.32;3.58;;;11.50;99.90;;;;;;6211099;23;20067;-69
2023/09/15 03:25:39;;;;;;;7.22;3.00;;;11.50;99.90;;;;;;6211604;23;20017;-69
2023/09/15 03:28:05;;;;;;;3.80;3.40;;;11.50;99.90;;;;;;6184867;23;20020;-69
2023/09/15 03:30:31;;;;;;;6.28;3.20;;;11.50;99.90;;;;;;6211859;23;20080;-69
2023/09/15 03:32:56;;;;;;;8.10;3.97;;;11.50;99.90;;;;;;6184674;23;20028;-69
2023/09/15 03:35:22;;;;;;;5.10;2.95;;;11.50;99.90;;;;;;6211526;23;20027;-69
2023/09/15 03:37:48;;;;;;;5.10;3.20;;;11.40;99.90;;;;;;6211365;23;20095;-69
2023/09/15 03:40:14;;;;;;;4.82;3.20;;;11.50;99.90;;;;;;6185357;23;20028;-69
2023/09/15 03:42:39;;;;;;;8.68;3.25;;;11.40;99.90;;;;;;6184891;23;20095;-69
2023/09/15 03:45:09;;;;;;;5.07;3.10;;;11.40;99.90;;;;;;6184833;23;20576;-69
2023/09/15 03:47:35;;;;;;;6.40;3.40;;;11.30;99.90;;;;;;6184333;23;20020;-69
2023/09/15 03:50:02;;;;;;;7.82;2.75;;;11.30;99.90;;;;;;6184590;23;20399;-69
2023/09/15 03:52:28;;;;;;;3.70;3.00;;;11.30;99.90;;;;;;6211104;23;20048;-69
2023/09/15 03:55:00;;;;;;;8.93;3.33;;;11.30;99.90;;;;;;6211029;23;20032;-69
2023/09/15 03:57:27;;;;;;;6.68;2.95;;;11.30;99.90;;;;;;6183813;23;20367;-69
2023/09/15 03:59:53;;;;;;;3.83;3.20;;;11.20;99.90;;;;;;6159888;23;20026;-69
2023/09/15 04:02:19;;;;;;;9.00;3.58;;;11.30;99.90;;;;;;6210859;23;20183;-69
2023/09/15 04:04:44;;;;;;;3.83;2.83;;;11.20;99.90;;;;;;6159794;23;20024;-69
2023/09/15 04:07:10;;;;;;;6.53;3.25;;;11.20;99.90;;;;;;6159061;23;20081;-69
2023/09/15 04:09:36;;;;;;;5.70;3.28;;;11.20;99.90;;;;;;6211285;23;20028;-69
2023/09/15 04:12:03;;;;;;;7.38;3.42;;;11.10;99.90;;;;;;6211380;23;20100;-69
2023/09/15 04:14:34;;;;;;;6.88;3.35;;;11.10;99.90;;;;;;6184488;23;20023;-69
2023/09/15 04:17:00;;;;;;;6.85;3.55;;;11.10;99.90;;;;;;6211045;23;20020;-69
2023/09/15 04:19:25;;;;;;;11.20;3.92;;;11.10;99.90;;;;;;6159683;23;20023;-69
2023/09/15 04:21:51;;;;;;;7.43;3.88;;;11.10;99.90;;;;;;6210965;23;20354;-69
2023/09/15 04:24:17;;;;;;;4.68;3.70;;;11.10;99.90;;;;;;6211134;23;20078;-69
2023/09/15 04:26:43;;;;;;;7.70;3.67;;;11.20;99.90;;;;;;6211200;23;20098;-69
2023/09/15 04:29:09;;;;;;;7.97;4.20;;;11.10;99.90;;;;;;6211319;23;20013;-69
2023/09/15 04:31:37;;;;;;;6.00;3.53;;;11.10;99.90;;;;;;6184464;23;20100;-69
2023/09/15 04:34:03;;;;;;;5.28;4.25;;;11.10;99.90;;;;;;6211142;23;20024;-69
2023/09/15 04:36:30;;;;;;;10.18;3.85;;;11.10;99.90;;;;;;6184004;23;20020;-69
2023/09/15 04:38:56;;;;;;;6.82;4.53;;;11.10;99.90;;;;;;6184159;23;20025;-69
2023/09/15 04:41:22;;;;;;;7.45;4.00;;;11.10;99.90;;;;;;6210836;23;20030;-69
2023/09/15 04:43:47;;;;;;;9.82;4.18;;;11.10;99.90;;;;;;6184183;23;20086;-69
2023/09/15 04:46:13;;;;;;;8.77;3.85;;;11.10;99.90;;;;;;6184127;23;20017;-69
2023/09/15 04:48:39;;;;;;;7.55;3.78;;;11.10;99.90;;;;;;6184120;23;20384;-69
2023/09/15 04:51:05;;;;;;;5.85;3.63;;;11.00;99.90;;;;;;6184890;23;20028;-69
2023/09/15 04:53:32;;;;;;;6.18;3.72;;;11.00;99.90;;;;;;6210941;23;20047;-69
2023/09/15 04:55:58;;;;;;;9.13;3.50;;;11.10;99.90;;;;;;6210858;23;20047;-69
2023/09/15 04:58:23;;;;;;;7.80;3.45;;;11.10;99.90;;;;;;6210052;23;20357;-69
2023/09/15 05:00:49;;;;;;;5.68;3.80;;;11.00;99.90;;;;;;6183868;23;20348;-69
2023/09/15 05:03:15;;;;;;;8.57;4.18;;;11.00;99.90;;;;;;6210492;23;20099;-69
2023/09/15 05:05:43;;;;;;;8.95;4.40;;;11.00;99.90;;;;;;6210382;23;20397;-69
2023/09/15 05:08:09;;;;;;;9.35;4.10;;;11.00;99.90;;;;;;6183601;23;20026;-69
2023/09/15 05:10:34;;;;;;;8.27;4.32;;;11.00;99.90;;;;;;6183717;23;20017;-69
2023/09/15 05:13:05;;;;;;;6.07;4.03;;;10.90;99.90;;;;;;6183374;23;20400;-69
2023/09/15 05:15:30;;;;;;;6.80;4.47;;;11.00;99.90;;;;;;6183757;23;20115;-69
2023/09/15 05:17:56;;;;;;;5.32;4.00;;;11.00;99.90;;;;;;6210800;23;20044;-69
2023/09/15 05:20:22;;;;;;;7.00;4.43;;;11.00;99.90;;;;;;6183509;23;20020;-69
2023/09/15 05:22:47;;;;;;;9.57;3.92;;;11.00;99.90;;;;;;6183480;23;20167;-69
2023/09/15 05:25:13;;;;;;;7.82;4.20;;;11.00;99.90;;;;;;6183596;23;20156;-69
2023/09/15 05:27:39;;;;;;;5.95;3.83;;;11.00;99.90;;;;;;6183394;23;20429;-69
2023/09/15 05:30:05;;;;;;;8.52;4.15;;;11.00;99.90;;;;;;6210317;23;20670;-69
2023/09/15 05:32:31;;;;;;;7.82;4.13;;;11.10;99.90;;;;;;6184031;23;20025;-69
2023/09/15 05:34:56;;;;;;;5.75;3.90;;;11.00;99.90;;;;;;6183407;23;20025;-69
2023/09/15 05:37:22;;;;;;;5.05;3.63;;;11.10;99.90;;;;;;6184043;23;20024;-69
2023/09/15 05:39:48;;;;;;;7.80;4.25;;;11.10;99.90;;;;;;6210417;23;20020;-69
2023/09/15 05:42:13;;;;;;;8.48;4.25;;;11.10;99.90;;;;;;6183507;23;20575;-68
2023/09/15 05:44:39;;;;;;;7.88;4.20;;;11.10;99.90;;;;;;6210748;23;20187;-69
2023/09/15 05:47:05;;;;;;;8.13;4.60;;;11.10;99.90;;;;;;6210655;23;20035;-69
2023/09/15 05:49:31;;;;;;;6.15;3.90;;;11.20;99.90;;;;;;6210228;23;20028;-68
2023/09/15 05:51:56;;;;;;;7.90;4.95;;;11.10;99.90;;;;;;6210253;23;20028;-69
2023/09/15 05:54:23;;;;;;;7.05;4.93;;;11.20;99.90;;;;;;6210572;23;20094;-69
2023/09/15 05:56:49;;;;;;;6.93;3.78;;;11.20;99.90;;;;;;6209636;23;20031;-69
2023/09/15 05:59:15;;;;;;;5.53;4.13;;;11.20;99.90;;;;;;6183513;23;20417;-69
2023/09/15 06:01:46;;;;;;;7.40;3.88;;;11.30;99.90;;;;;;6210567;23;20095;-70
2023/09/15 06:04:13;;;;;;;9.98;4.72;;;11.40;99.90;;;;;;6183512;23;20040;-69
2023/09/15 06:06:39;;;;;;;6.97;3.58;;;11.40;99.90;;;;;;6183375;23;20472;-69
2023/09/15 06:09:04;;;;;;;6.28;4.20;;;11.40;99.90;;;;;;6183574;23;20029;-69
2023/09/15 06:11:30;;;;;;;6.47;4.38;;;11.50;99.90;;;;;;6212179;23;20013;-69
2023/09/15 06:13:56;;;;;;;8.20;4.40;;;11.50;99.90;;;;;;6185447;23;20017;-69
2023/09/15 06:16:21;;;;;;;6.68;4.47;;;11.60;99.90;;;;;;6185427;23;20020;-69
2023/09/15 06:18:47;;;;;;;9.05;4.32;;;11.60;99.90;;;;;;6185225;23;20519;-69
2023/09/15 06:21:14;;;;;;;9.40;3.78;;;11.70;99.90;;;;;;6185266;23;20029;-69
2023/09/15 06:23:39;;;;;;;5.90;4.20;;;11.80;99.90;;;;;;6212053;23;20070;-69
2023/09/15 06:26:06;;;;;;;6.50;4.68;;;11.80;99.90;;;;;;6212078;23;20017;-69
2023/09/15 06:28:32;;;;;;;7.07;4.22;;;11.90;99.90;;;;;;6185341;23;20083;-69
2023/09/15 06:30:59;;;;;;;7.82;3.97;;;12.00;99.90;;;;;;6185217;23;20076;-69
2023/09/15 06:33:24;;;;;;;7.95;4.35;;;12.00;99.90;;;;;;6212032;23;20020;-69
2023/09/15 06:35:50;;;;;;;7.43;4.20;;;12.00;99.90;;;;;;6212362;23;20024;-69
2023/09/15 06:38:16;;;;;;;6.95;5.05;;;12.10;99.90;;;;;;6185386;23;20086;-69
2023/09/15 06:40:41;;;;;;;6.13;4.00;;;12.10;99.90;;;;;;6212215;23;20384;-69
2023/09/15 06:43:07;;;;;;;5.63;4.10;;;12.20;99.90;;;;;;6212476;23;20023;-69
2023/09/15 06:45:34;;;;;;;7.57;3.00;;;12.30;99.90;;;;;;6212571;23;20318;-69
2023/09/15 06:48:00;;;;;;;7.32;4.38;;;12.40;99.90;;;;;;6212357;23;20016;-69
2023/09/15 06:50:26;;;;;;;5.50;4.07;;;12.70;99.90;;;;;;6185349;23;20341;-69
2023/09/15 06:52:52;;;;;;;10.48;4.32;;;12.60;99.90;;;;;;6185117;23;20144;-69
2023/09/15 06:55:17;;;;;;;5.13;3.92;;;12.70;99.90;;;;;;6211605;23;20025;-69
2023/09/15 06:57:43;;;;;;;5.60;4.13;;;12.70;99.90;;;;;;6159761;23;20348;-69
2023/09/15 07:00:09;;;;;;;7.53;4.60;;;12.70;99.90;;;;;;6184686;23;20095;-69
2023/09/15 07:02:35;;;;;;;6.88;4.07;;;12.80;99.90;;;;;;6184721;23;20016;-69
2023/09/15 07:05:00;;;;;;;5.88;4.00;;;12.90;99.90;;;;;;6184915;23;20445;-69
2023/09/15 07:07:26;;;;;;;8.75;4.50;;;12.90;99.90;;;;;;6184730;23;20048;-69
2023/09/15 07:09:52;;;;;;;6.35;4.35;;;12.90;99.90;;;;;;6211924;23;20031;-69
2023/09/15 07:12:18;;;;;;;10.40;4.28;;;13.00;99.90;;;;;;6211603;23;20079;-69
2023/09/15 07:14:43;;;;;;;7.22;4.75;;;13.00;99.90;;;;;;6211591;23;20020;-68
2023/09/15 07:17:09;;;;;;;8.07;4.60;;;13.10;99.90;;;;;;6160218;23;20433;-69
2023/09/15 07:19:35;;;;;;;7.90;4.70;;;13.20;99.90;;;;;;6211230;23;20127;-69
2023/09/15 07:22:00;;;;;;;8.93;4.18;;;13.30;99.90;;;;;;6210864;23;20095;-69
2023/09/15 07:24:26;;;;;;;6.57;4.07;;;13.30;99.90;;;;;;6184538;23;20028;-69
2023/09/15 07:26:52;;;;;;;4.95;3.28;;;13.30;99.90;;;;;;6211556;23;20024;-69
2023/09/15 07:29:17;;;;;;;5.82;3.95;;;13.40;99.90;;;;;;6211021;23;20020;-69
2023/09/15 07:31:43;;;;;;;7.82;3.80;;;13.40;99.90;;;;;;6211645;23;20027;-69
2023/09/15 07:34:09;;;;;;;10.10;4.60;;;13.40;99.90;;;;;;6211670;23;20048;-69
2023/09/15 07:36:35;;;;;;;8.95;4.07;;;13.40;99.90;;;;;;6211555;23;20020;-69
2023/09/15 07:39:01;;;;;;;5.75;3.80;;;13.50;99.90;;;;;;6184554;23;20091;-69
2023/09/15 07:41:26;;;;;;;9.88;3.92;;;13.60;99.90;;;;;;6211011;23;20163;-69
2023/09/15 07:43:55;;;;;;;10.82;3.78;;;13.60;99.90;;;;;;6210788;23;20153;-68
2023/09/15 07:46:21;;;;;;;9.40;3.63;;;13.70;99.90;;;;;;6184606;23;20100;-69
2023/09/15 07:48:46;;;;;;;7.75;4.43;;;13.70;99.90;;;;;;6184515;23;20045;-69
2023/09/15 07:51:13;;;;;;;11.60;3.88;;;13.80;99.90;;;;;;6184347;23;20028;-69
2023/09/15 07:53:39;;;;;;;7.88;3.25;;;13.90;99.90;;;;;;6159600;23;20024;-69
2023/09/15 07:56:05;;;;;;;10.25;4.28;;;13.90;99.90;;;;;;6159357;23;20013;-69
2023/09/15 07:58:31;;;;;;;10.45;3.80;;;14.00;99.90;;;;;;6211017;23;20083;-69
2023/09/15 08:00:57;;;;;;;5.13;3.25;;;14.10;99.90;;;;;;6211908;23;20016;-69
2023/09/15 08:03:23;;;;;;;7.82;3.20;;;14.10;99.90;;;;;;6184732;23;20028;-69
2023/09/15 08:05:49;;;;;;;8.35;4.20;;;14.10;99.90;;;;;;6211418;23;20048;-69
2023/09/15 08:08:15;;;;;;;7.55;3.55;;;14.20;99.90;;;;;;6184599;23;20020;-69
2023/09/15 08:10:41;;;;;;;5.13;3.70;;;14.40;99.90;;;;;;6184423;23;20030;-69
2023/09/15 08:13:06;;;;;;;6.95;4.03;;;14.40;99.90;;;;;;6210650;23;20127;-69
2023/09/15 08:15:32;;;;;;;6.60;3.33;;;14.50;99.90;;;;;;6211465;23;20017;-69
2023/09/15 08:17:58;;;;;;;7.57;3.38;;;14.50;99.90;;;;;;6184310;23;20092;-69
2023/09/15 08:20:25;;;;;;;12.77;3.08;;;14.60;99.90;;;;;;6211362;23;20017;-70
2023/09/15 08:22:50;;;;;;;8.43;3.88;;;14.60;99.90;;;;;;6211218;23;20440;-69
2023/09/15 08:25:16;;;;;;;9.38;3.42;;;14.70;99.90;;;;;;6211385;23;20023;-69
2023/09/15 08:27:45;;;;;;;9.82;3.60;;;14.70;99.90;;;;;;6210909;23;20072;-69
2023/09/15 08:30:12;;;;;;;7.65;3.72;;;14.80;99.90;;;;;;6184696;23;20082;-69
2023/09/15 08:32:37;;;;;;;9.45;3.47;;;14.90;99.90;;;;;;6184710;23;20025;-69
2023/09/15 08:35:04;;;;;;;6.05;3.35;;;15.00;99.90;;;;;;6184337;23;20094;-69
2023/09/15 08:37:30;;;;;;;6.03;3.13;;;15.00;99.90;;;;;;6211030;23;20066;-69
2023/09/15 08:39:56;;;;;;;9.32;3.55;;;15.10;99.90;;;;;;6210809;23;20441;-69
2023/09/15 08:42:29;;;;;;;4.90;3.00;;;15.20;99.90;;;;;;6183947;23;20087;-69
2023/09/15 08:44:58;;;;;;;12.18;3.08;;;15.20;99.90;;;;;;6211076;23;20036;-69
2023/09/15 08:47:27;;;;;;;11.32;3.53;;;15.30;99.90;;;;;;6211086;23;20095;-69
2023/09/15 08:49:54;;;;;;;7.78;3.38;;;15.40;99.90;;;;;;6184044;23;20024;-69
2023/09/15 08:52:20;;;;;;;7.43;3.42;;;15.40;99.90;;;;;;6210997;23;20318;-69
2023/09/15 08:54:46;;;;;;;6.93;3.03;;;15.60;99.90;;;;;;6183848;23;20025;-69
2023/09/15 08:57:13;;;;;;;8.00;3.40;;;15.70;99.90;;;;;;6183381;23;20048;-68
2023/09/15 08:59:40;;;;;;;9.75;2.83;;;15.80;99.90;;;;;;6183867;23;20020;-68
2023/09/15 09:02:10;;;;;;;5.28;2.75;;;15.80;99.90;;;;;;6210357;23;20051;-69
2023/09/15 09:04:35;;;;;;;5.40;2.70;;;15.90;99.90;;;;;;6184244;23;20018;-68
2023/09/15 09:07:03;;;;;;;3.47;2.70;;;16.00;99.90;;;;;;6210584;23;20108;-68
2023/09/15 09:09:30;;;;;;;8.13;2.95;;;16.10;99.90;;;;;;6210871;23;20401;-69
2023/09/15 09:11:56;;;;;;;5.53;2.80;;;16.20;99.90;;;;;;6210561;23;20375;-69
2023/09/15 09:14:22;;;;;;;3.33;2.40;;;16.30;99.90;;;;;;6210818;23;20016;-69
2023/09/15 09:16:48;;;;;;;7.18;2.10;;;16.40;99.90;;;;;;6183793;23;20028;-69
2023/09/15 09:19:14;;;;;;;6.82;2.10;;;16.50;99.90;;;;;;6210723;23;20029;-68
2023/09/15 09:21:40;;;;;;;6.57;2.22;;;16.60;99.90;;;;;;6183658;23;20096;-69
2023/09/15 09:24:07;;;;;;;6.95;2.25;;;16.60;99.90;;;;;;6183825;23;20099;-68
2023/09/15 09:26:32;;;;;;;4.10;2.20;;;16.80;99.90;;;;;;6210524;23;20110;-68
2023/09/15 09:28:58;;;;;;;7.22;2.78;;;16.70;99.90;;;;;;6184783;23;20020;-68
2023/09/15 09:31:26;;;;;;;5.85;2.47;;;16.90;99.90;;;;;;6210891;23;20027;-69
2023/09/15 09:33:53;;;;;;;8.48;2.20;;;16.90;99.90;;;;;;6159005;23;20096;-69
2023/09/15 09:36:19;;;;;;;5.07;2.50;;;16.90;99.90;;;;;;6210725;23;20021;-69
2023/09/15 09:38:47;;;;;;;4.68;2.10;;;17.00;99.90;;;;;;6210681;23;20020;-69
2023/09/15 09:41:13;;;;;;;7.03;2.60;;;17.00;99.90;;;;;;6183380;23;20384;-69
2023/09/15 09:43:41;;;;;;;7.13;2.35;;;17.20;99.90;;;;;;6210717;23;20056;-69
2023/09/15 09:46:08;;;;;;;3.97;3.20;;;17.10;99.90;;;;;;6211778;23;20024;-69
2023/09/15 09:48:38;;;;;;;4.50;2.83;;;17.10;99.90;;;;;;6161176;23;20048;-69
2023/09/15 09:51:05;;;;;;;6.10;2.60;;;17.20;99.90;;;;;;6185646;23;20051;-69
2023/09/15 09:53:33;;;;;;;9.38;2.38;;;17.20;99.90;;;;;;6212335;23;20420;-69
2023/09/15 09:56:07;;;;;;;9.93;3.03;;;17.20;99.90;;;;;;6211732;23;20551;-69
2023/09/15 09:58:34;;;;;;;7.28;2.67;;;17.30;99.90;;;;;;6185584;23;20029;-68
2023/09/15 10:01:00;;;;;;;9.07;3.13;;;17.40;99.90;;;;;;6212574;23;20099;-69
2023/09/15 10:03:26;;;;;;;3.17;2.10;;;17.40;99.90;;;;;;6212591;23;20025;-68
2023/09/15 10:05:52;;;;;;;4.97;2.70;;;17.40;99.90;;;;;;6185647;23;20504;-68
2023/09/15 10:08:19;;;;;;;8.70;2.33;;;17.50;99.90;;;;;;6212215;23;20029;-69
2023/09/15 10:10:46;;;;;;;3.60;2.08;;;17.50;99.90;;;;;;6185105;23;20404;-68
2023/09/15 10:13:16;;;;;;;6.18;2.03;;;17.50;99.90;;;;;;6212537;23;20020;-68
2023/09/15 10:15:43;;;;;;;4.35;2.17;;;17.60;99.90;;;;;;6185846;23;20024;-68
2023/09/15 10:18:12;;;;;;;8.38;2.13;;;17.60;99.90;;;;;;6212855;23;20017;-69
2023/09/15 10:20:41;;;;;;;4.68;1.83;;;17.70;99.90;;;;;;6185848;23;20029;-69
2023/09/15 10:23:07;;;;;;;2.78;1.85;;;17.80;99.90;;;;;;6185800;23;20025;-69
2023/09/15 10:25:49;;;;;;;6.43;2.03;;;17.80;99.90;;;;;;6212558;23;20027;-69
2023/09/15 10:28:19;;;;;;;5.30;2.13;;;17.90;99.90;;;;;;6212613;23;20043;-69
2023/09/15 10:30:45;;;;;;;3.60;1.88;;;17.80;99.90;;;;;;6212543;23;20062;-68
2023/09/15 10:33:12;;;;;;;5.55;2.00;;;18.00;99.90;;;;;;6212234;23;20025;-69
2023/09/15 10:35:44;;;;;;;4.90;2.33;;;18.00;99.90;;;;;;6212422;23;20021;-69
2023/09/15 10:38:10;;;;;;;7.15;2.28;;;18.00;99.90;;;;;;6185092;23;20785;-69
2023/09/15 10:40:47;;;;;;;11.57;2.22;;;18.00;99.90;;;;;;6160367;23;20035;-68
2023/09/15 10:43:14;;;;;;;8.25;2.22;;;18.10;99.90;;;;;;6211925;23;20054;-69
2023/09/15 10:45:39;;;;;;;7.05;2.85;;;18.30;99.90;;;;;;6211833;23;20452;-69
2023/09/15 10:48:05;;;;;;;5.20;2.00;;;18.30;99.90;;;;;;6212200;23;20019;-69
2023/09/15 10:50:39;;;;;;;5.90;2.08;;;18.30;99.90;;;;;;6212499;23;20360;-69
2023/09/15 10:53:15;;;;;;;5.43;1.98;;;18.20;99.90;;;;;;6184963;23;20114;-69
2023/09/15 10:55:41;;;;;;;5.85;2.10;;;18.30;99.90;;;;;;6185166;23;20071;-69
2023/09/15 10:58:08;;;;;;;6.78;2.30;;;18.50;99.90;;;;;;6211158;23;20025;-69
2023/09/15 11:00:35;;;;;;;5.47;2.20;;;18.50;99.90;;;;;;6212076;23;20017;-69
2023/09/15 11:03:03;;;;;;;5.80;2.13;;;18.50;99.90;;;;;;6211941;23;20027;-69
2023/09/15 11:05:29;;;;;;;5.20;1.67;;;18.50;99.90;;;;;;6185056;23;20016;-69
2023/09/15 11:07:56;;;;;;;3.78;2.03;;;18.60;99.90;;;;;;6211488;23;20083;-69
2023/09/15 11:10:32;;;;;;;5.15;2.22;;;18.40;99.90;;;;;;6211640;23;20032;-68
2023/09/15 11:12:59;;;;;;;4.93;1.90;;;18.60;99.90;;;;;;6184865;23;20467;-68
2023/09/15 11:15:25;;;;;;;4.00;1.92;;;18.70;99.90;;;;;;6185269;23;20024;-69
2023/09/15 11:17:51;;;;;;;7.68;2.40;;;18.80;99.90;;;;;;6211990;23;20020;-68
2023/09/15 11:20:17;;;;;;;6.75;1.85;;;18.80;99.90;;;;;;6184948;23;20020;-69
2023/09/15 11:22:43;;;;;;;4.18;1.98;;;18.70;99.90;;;;;;6211191;23;20056;-68
2023/09/15 11:25:10;;;;;;;7.85;2.10;;;18.80;99.90;;;;;;6211540;23;20024;-69
2023/09/15 11:27:35;;;;;;;3.58;2.10;;;18.90;99.90;;;;;;6185173;23;20083;-69
2023/09/15 11:30:04;;;;;;;7.47;2.20;;;18.90;99.90;;;;;;6185287;23;20024;-69
2023/09/15 11:32:32;;;;;;;5.30;1.65;;;19.00;99.90;;;;;;6211949;23;20017;-69
2023/09/15 11:35:00;;;;;;;6.50;1.88;;;19.10;99.90;;;;;;6212001;23;20431;-69
2023/09/15 11:37:27;;;;;;;4.35;1.90;;;18.90;99.90;;;;;;6184559;23;20131;-69
2023/09/15 11:39:54;;;;;;;6.35;1.80;;;19.00;99.90;;;;;;6211859;23;20020;-69
2023/09/15 11:42:19;;;;;;;5.28;2.13;;;19.10;99.90;;;;;;6212012;23;20071;-69
2023/09/15 11:44:45;;;;;;;7.95;1.98;;;19.00;99.90;;;;;;6211745;23;20443;-69
2023/09/15 11:47:12;;;;;;;4.35;1.63;;;19.00;99.90;;;;;;6212055;23;20016;-69
2023/09/15 11:49:38;;;;;;;3.72;1.90;;;19.10;99.90;;;;;;6212004;23;20056;-69
2023/09/15 11:52:05;;;;;;;6.65;2.28;;;19.20;99.90;;;;;;6185028;23;20058;-69
2023/09/15 11:54:31;;;;;;;8.38;2.35;;;19.20;99.90;;;;;;6185025;23;20456;-68
2023/09/15 11:56:57;;;;;;;4.78;1.98;;;19.30;99.90;;;;;;6184458;23;20035;-69
2023/09/15 11:59:24;;;;;;;6.13;2.28;;;19.30;99.90;;;;;;6211709;23;20031;-68
2023/09/15 12:01:54;;;;;;;6.63;2.25;;;19.20;99.90;;;;;;6184657;23;20511;-69
2023/09/15 12:04:20;;;;;;;4.03;1.90;;;19.20;99.90;;;;;;6184865;23;20702;-69
2023/09/15 12:06:46;;;;;;;7.20;2.20;;;19.10;99.90;;;;;;6211438;23;20016;-69
2023/09/15 12:09:14;;;;;;;7.10;2.30;;;19.20;99.90;;;;;;6159876;23;20020;-69
2023/09/15 12:11:41;;;;;;;5.65;2.50;;;19.30;99.90;;;;;;6211638;23;20355;-68
2023/09/15 12:14:07;;;;;;;6.55;2.00;;;19.30;99.90;;;;;;6160034;23;20021;-69
2023/09/15 12:16:33;;;;;;;5.00;2.38;;;19.40;99.90;;;;;;6211828;23;20387;-68
2023/09/15 12:19:00;;;;;;;3.88;2.13;;;19.50;99.90;;;;;;6211437;23;20024;-69
2023/09/15 12:21:28;;;;;;;7.53;2.15;;;19.50;99.90;;;;;;6184197;23;20052;-69
2023/09/15 12:23:55;;;;;;;7.63;2.40;;;19.60;99.90;;;;;;6211389;23;20012;-69
2023/09/15 12:26:25;;;;;;;4.88;2.60;;;19.60;99.90;;;;;;6160066;23;20390;-68
2023/09/15 12:28:53;;;;;;;6.18;2.45;;;19.70;99.90;;;;;;6184919;23;20071;-69
2023/09/15 12:31:22;;;;;;;6.57;2.17;;;19.60;99.90;;;;;;6212111;23;20022;-68
2023/09/15 12:33:52;;;;;;;5.22;2.25;;;19.70;99.90;;;;;;6184713;23;20052;-69
2023/09/15 12:36:19;;;;;;;4.07;2.05;;;19.60;99.90;;;;;;6184904;23;20078;-68
2023/09/15 12:38:45;;;;;;;7.65;2.50;;;19.70;99.90;;;;;;6211907;23;20019;-68
2023/09/15 12:41:11;;;;;;;6.07;2.22;;;19.70;99.90;;;;;;6211032;23;20057;-68
2023/09/15 12:43:37;;;;;;;7.35;2.53;;;19.80;99.90;;;;;;6184386;23;20021;-68